Time;durP1;ratioP1;P1;durP2;ratioP2;P2;SDS_P1;SDS_P2;PMS_P1;PMS_P2;Temp;Humidity;BMP_temperature;BMP_pressure;BME280_temperature;BME280_humidity;BME280_pressure;Samples;Min_cycle;Max_cycle;Signal;HPM_P1;HPM_P2
2023/06/05 00:01:56;;;;;;;7.38;4.00;;;12.80;97.10;;;;;;4987824;28;20085;-36
2023/06/05 00:04:24;;;;;;;6.85;4.32;;;12.80;96.80;;;;;;4993246;28;20054;-35
2023/06/05 00:06:51;;;;;;;7.93;5.20;;;12.70;96.60;;;;;;4988256;28;20061;-36
2023/06/05 00:09:19;;;;;;;7.28;4.30;;;12.70;97.00;;;;;;4993346;28;20108;-36
2023/06/05 00:11:46;;;;;;;7.03;4.22;;;12.70;97.10;;;;;;4975316;28;20070;-36
2023/06/05 00:14:13;;;;;;;7.20;4.60;;;12.60;96.90;;;;;;4990725;28;20050;-39
2023/06/05 00:16:40;;;;;;;8.68;4.18;;;12.60;96.90;;;;;;4985876;28;20050;-41
2023/06/05 00:19:07;;;;;;;8.13;4.95;;;12.60;96.80;;;;;;4993115;28;20454;-36
2023/06/05 00:21:34;;;;;;;7.25;4.35;;;12.60;97.10;;;;;;4976301;28;20057;-35
2023/06/05 00:24:01;;;;;;;9.38;5.10;;;12.60;97.00;;;;;;4988808;28;20100;-35
2023/06/05 00:26:29;;;;;;;15.18;5.38;;;12.60;97.60;;;;;;4991396;28;20089;-37
2023/06/05 00:28:56;;;;;;;6.88;4.50;;;12.50;98.20;;;;;;4983414;28;20078;-35
2023/06/05 00:31:23;;;;;;;11.68;5.07;;;12.40;98.40;;;;;;4992470;28;20058;-36
2023/06/05 00:33:51;;;;;;;8.13;4.93;;;12.30;98.80;;;;;;4991232;28;20502;-38
2023/06/05 00:36:18;;;;;;;6.53;4.85;;;12.30;98.80;;;;;;4985871;28;20125;-37
2023/06/05 00:38:45;;;;;;;7.50;4.50;;;12.20;98.90;;;;;;4991599;28;20053;-35
2023/06/05 00:41:12;;;;;;;7.25;4.82;;;12.20;99.00;;;;;;4992150;28;20059;-41
2023/06/05 00:43:40;;;;;;;8.95;5.68;;;12.10;99.00;;;;;;4992224;28;20113;-32
2023/06/05 00:46:07;;;;;;;9.85;5.75;;;12.10;99.40;;;;;;4991723;28;20545;-39
2023/06/05 00:48:34;;;;;;;7.60;4.88;;;12.00;99.40;;;;;;4992173;28;20453;-35
2023/06/05 00:51:01;;;;;;;6.97;4.68;;;12.00;99.30;;;;;;4992055;28;20109;-38
2023/06/05 00:53:28;;;;;;;8.15;4.90;;;12.00;99.00;;;;;;4991909;28;20104;-36
2023/06/05 00:55:57;;;;;;;8.50;4.60;;;12.00;98.70;;;;;;4988290;28;20203;-37
2023/06/05 00:58:23;;;;;;;8.43;4.90;;;11.90;98.80;;;;;;4983327;28;20130;-37
2023/06/05 01:00:53;;;;;;;8.07;5.63;;;11.90;98.80;;;;;;4987336;28;20406;-40
2023/06/05 01:03:22;;;;;;;7.50;5.65;;;11.90;98.80;;;;;;4979080;28;20169;-39
2023/06/05 01:05:49;;;;;;;8.00;4.95;;;11.90;98.90;;;;;;4991965;28;20057;-35
2023/06/05 01:08:16;;;;;;;10.63;5.60;;;11.90;98.80;;;;;;4991533;28;20058;-39
2023/06/05 01:10:43;;;;;;;8.48;5.53;;;11.90;98.90;;;;;;4979759;28;20094;-37
2023/06/05 01:13:16;;;;;;;12.55;5.68;;;11.80;98.90;;;;;;4987028;28;20050;-36
2023/06/05 01:15:42;;;;;;;9.27;5.70;;;11.80;99.00;;;;;;4990935;28;20062;-36
2023/06/05 01:18:11;;;;;;;7.95;5.93;;;11.80;99.10;;;;;;4992200;28;20042;-36
2023/06/05 01:20:39;;;;;;;9.13;5.70;;;11.80;99.20;;;;;;4991669;28;20086;-38
2023/06/05 01:23:07;;;;;;;9.65;6.38;;;11.70;99.00;;;;;;4988944;28;20074;-36
2023/06/05 01:25:34;;;;;;;10.63;6.00;;;11.70;99.50;;;;;;4983460;28;20100;-37
2023/06/05 01:28:03;;;;;;;7.90;4.50;;;11.70;99.90;;;;;;4987005;28;20046;-37
2023/06/05 01:30:32;;;;;;;7.95;5.22;;;11.60;99.70;;;;;;4991214;28;20470;-37
2023/06/05 01:33:02;;;;;;;9.50;6.50;;;11.60;99.60;;;;;;4991424;28;20054;-37
2023/06/05 01:35:32;;;;;;;10.30;5.97;;;11.60;99.80;;;;;;4991902;28;20057;-39
2023/06/05 01:37:59;;;;;;;8.73;5.70;;;11.50;99.80;;;;;;4991018;28;20129;-38
2023/06/05 01:40:27;;;;;;;11.63;6.32;;;11.40;99.90;;;;;;4991530;28;20077;-40
2023/06/05 01:42:55;;;;;;;10.77;6.10;;;11.50;99.90;;;;;;4976988;28;20566;-38
2023/06/05 01:45:22;;;;;;;12.02;6.30;;;11.40;99.90;;;;;;4986365;28;20076;-35
2023/06/05 01:47:49;;;;;;;10.35;6.68;;;11.40;99.90;;;;;;4990331;28;20058;-40
2023/06/05 01:50:16;;;;;;;9.75;6.57;;;11.40;99.90;;;;;;4991335;28;20060;-39
2023/06/05 01:52:45;;;;;;;7.47;5.10;;;11.30;99.90;;;;;;4979140;28;20085;-41
2023/06/05 01:55:20;;;;;;;11.05;7.00;;;11.30;99.90;;;;;;4981046;28;20491;-40
2023/06/05 01:57:48;;;;;;;8.27;5.53;;;11.30;99.90;;;;;;4991267;28;20093;-37
2023/06/05 02:00:15;;;;;;;11.13;5.93;;;11.30;99.90;;;;;;4987253;28;20054;-39
2023/06/05 02:02:43;;;;;;;11.68;6.28;;;11.30;99.90;;;;;;4990362;28;20069;-42
2023/06/05 02:05:10;;;;;;;11.27;6.35;;;11.20;99.90;;;;;;4991642;28;20479;-38
2023/06/05 02:07:39;;;;;;;9.82;5.72;;;11.20;99.90;;;;;;4986637;28;20126;-39
2023/06/05 02:10:07;;;;;;;8.77;6.30;;;11.20;99.90;;;;;;4982168;28;20077;-37
2023/06/05 02:12:34;;;;;;;7.82;5.90;;;11.20;99.90;;;;;;4977479;28;20051;-35
2023/06/05 02:15:02;;;;;;;11.25;6.80;;;11.20;99.90;;;;;;4995100;28;20137;-38
2023/06/05 02:17:29;;;;;;;11.32;7.10;;;11.20;99.90;;;;;;4995030;28;20784;-38
2023/06/05 02:19:56;;;;;;;9.07;5.82;;;11.10;99.90;;;;;;4993935;28;20128;-39
2023/06/05 02:22:24;;;;;;;9.68;6.05;;;11.10;99.90;;;;;;4989373;28;20173;-39
2023/06/05 02:24:51;;;;;;;12.27;6.03;;;11.10;99.90;;;;;;4993411;28;20450;-37
2023/06/05 02:27:19;;;;;;;10.90;6.68;;;11.10;99.90;;;;;;4975735;28;20411;-39
2023/06/05 02:29:46;;;;;;;8.32;5.90;;;11.10;99.90;;;;;;4993847;28;20058;-34
2023/06/05 02:32:14;;;;;;;9.68;7.10;;;11.00;99.90;;;;;;4993345;28;20414;-38
2023/06/05 02:34:41;;;;;;;9.90;7.50;;;11.00;99.90;;;;;;4993820;28;20058;-36
2023/06/05 02:37:08;;;;;;;9.68;6.15;;;11.00;99.90;;;;;;4993865;28;20560;-35
2023/06/05 02:39:35;;;;;;;11.75;7.32;;;11.00;99.90;;;;;;4995231;28;20059;-34
2023/06/05 02:42:01;;;;;;;10.90;6.90;;;10.90;99.90;;;;;;4993700;28;20054;-36
2023/06/05 02:44:29;;;;;;;12.35;8.15;;;11.00;99.90;;;;;;4982859;28;20299;-39
2023/06/05 02:46:56;;;;;;;10.57;6.82;;;11.00;99.90;;;;;;4984932;28;20051;-38
2023/06/05 02:49:24;;;;;;;12.27;7.53;;;10.90;99.90;;;;;;4990103;28;20055;-34
2023/06/05 02:51:51;;;;;;;9.90;7.10;;;10.90;99.90;;;;;;4984704;28;20393;-32
2023/06/05 02:54:18;;;;;;;8.30;6.82;;;10.90;99.90;;;;;;4976507;28;20054;-35
2023/06/05 02:56:45;;;;;;;9.80;7.53;;;10.90;99.90;;;;;;4990399;28;20054;-36
2023/06/05 02:59:12;;;;;;;10.30;7.60;;;10.90;99.90;;;;;;4988393;28;20374;-37
2023/06/05 03:01:43;;;;;;;9.10;6.93;;;10.90;99.90;;;;;;4981562;28;20038;-37
2023/06/05 03:04:10;;;;;;;11.00;6.40;;;10.80;99.90;;;;;;4993781;28;20058;-32
2023/06/05 03:06:38;;;;;;;11.05;8.60;;;10.80;99.90;;;;;;4995056;28;20054;-34
2023/06/05 03:09:06;;;;;;;10.07;6.60;;;10.80;99.90;;;;;;4986969;28;20113;-39
2023/06/05 03:11:33;;;;;;;9.57;6.85;;;10.80;99.90;;;;;;4985608;28;20461;-36
2023/06/05 03:14:00;;;;;;;10.13;6.97;;;10.70;99.90;;;;;;4983171;28;20102;-37
2023/06/05 03:16:37;;;;;;;10.77;7.45;;;10.80;99.90;;;;;;4979017;28;20066;-40
2023/06/05 03:19:04;;;;;;;9.25;7.45;;;10.70;99.90;;;;;;4977853;28;20499;-40
2023/06/05 03:21:30;;;;;;;11.70;7.57;;;10.70;99.90;;;;;;4991782;28;20122;-34
2023/06/05 03:23:59;;;;;;;11.25;7.68;;;10.80;99.90;;;;;;4982988;28;20086;-39
2023/06/05 03:26:26;;;;;;;13.18;8.93;;;10.80;99.90;;;;;;4983960;28;20445;-36
2023/06/05 03:28:53;;;;;;;11.05;7.93;;;10.80;99.90;;;;;;4992610;28;20541;-38
2023/06/05 03:31:19;;;;;;;9.75;7.20;;;10.70;99.90;;;;;;4991667;28;20081;-34
2023/06/05 03:33:46;;;;;;;11.07;7.32;;;10.80;99.90;;;;;;4994639;28;20090;-39
2023/06/05 03:36:15;;;;;;;11.13;7.60;;;10.80;99.90;;;;;;4987943;28;20100;-36
2023/06/05 03:38:41;;;;;;;10.43;7.65;;;10.80;99.90;;;;;;4983934;28;20093;-40
2023/06/05 03:41:10;;;;;;;9.60;7.35;;;10.80;99.90;;;;;;4980650;28;20046;-35
2023/06/05 03:43:37;;;;;;;10.85;6.72;;;10.80;99.90;;;;;;4993176;28;20081;-37
2023/06/05 03:46:04;;;;;;;13.05;8.13;;;10.80;99.90;;;;;;4991501;28;20051;-38
2023/06/05 03:48:30;;;;;;;10.60;7.38;;;10.80;99.90;;;;;;4980888;28;20132;-35
2023/06/05 03:50:57;;;;;;;11.35;7.47;;;10.80;99.90;;;;;;4985875;28;20129;-37
2023/06/05 03:53:24;;;;;;;11.32;7.38;;;10.90;99.90;;;;;;4981556;28;20388;-36
2023/06/05 03:55:52;;;;;;;13.38;10.10;;;10.90;99.90;;;;;;4981098;28;20096;-35
2023/06/05 03:58:20;;;;;;;12.25;7.88;;;11.00;99.90;;;;;;4975181;28;20051;-35
2023/06/05 04:00:48;;;;;;;11.77;7.68;;;10.90;99.90;;;;;;4989594;28;20085;-36
2023/06/05 04:03:15;;;;;;;10.98;8.18;;;10.90;99.90;;;;;;4992995;28;20125;-36
2023/06/05 04:05:42;;;;;;;13.07;7.90;;;10.90;99.90;;;;;;4985138;28;20082;-39
2023/06/05 04:08:09;;;;;;;9.30;7.85;;;10.90;99.90;;;;;;4987954;28;20129;-36
2023/06/05 04:10:36;;;;;;;10.73;7.45;;;10.90;99.90;;;;;;5006088;28;20058;-39
2023/06/05 04:13:03;;;;;;;13.02;8.82;;;10.90;99.90;;;;;;4988321;28;20419;-35
2023/06/05 04:15:32;;;;;;;12.98;8.48;;;10.90;99.90;;;;;;4980646;28;20057;-39
2023/06/05 04:17:59;;;;;;;14.18;8.65;;;10.90;99.90;;;;;;4985518;28;20129;-37
2023/06/05 04:20:25;;;;;;;10.25;7.70;;;10.90;99.90;;;;;;4993066;28;20050;-41
2023/06/05 04:22:52;;;;;;;11.45;7.85;;;10.90;99.90;;;;;;4990729;28;20049;-36
2023/06/05 04:25:19;;;;;;;13.45;9.98;;;10.90;99.90;;;;;;4980396;28;20226;-37
2023/06/05 04:27:48;;;;;;;10.43;7.68;;;10.90;99.90;;;;;;4983283;28;20100;-34
2023/06/05 04:30:15;;;;;;;12.57;7.13;;;10.90;99.90;;;;;;4989349;28;20050;-35
2023/06/05 04:32:54;;;;;;;14.15;8.65;;;10.90;99.90;;;;;;4984352;28;20473;-38
2023/06/05 04:35:21;;;;;;;10.65;7.93;;;11.00;99.90;;;;;;4993267;28;20498;-36
2023/06/05 04:37:48;;;;;;;14.15;9.90;;;10.90;99.90;;;;;;4990116;28;20054;-38
2023/06/05 04:40:16;;;;;;;11.63;7.93;;;11.00;99.90;;;;;;4983284;28;20050;-37
2023/06/05 04:42:43;;;;;;;11.70;8.13;;;11.00;99.90;;;;;;4991353;28;20050;-37
2023/06/05 04:45:11;;;;;;;14.55;9.27;;;11.00;99.90;;;;;;4992079;28;20568;-36
2023/06/05 04:47:38;;;;;;;10.13;7.78;;;11.00;99.90;;;;;;4993350;28;20046;-35
2023/06/05 04:50:07;;;;;;;12.90;8.52;;;11.10;99.90;;;;;;4988968;28;20536;-37
2023/06/05 04:52:34;;;;;;;10.80;7.63;;;11.10;99.90;;;;;;4990596;28;20061;-35
2023/06/05 04:55:02;;;;;;;10.45;7.32;;;11.10;99.90;;;;;;4991811;28;20502;-39
2023/06/05 04:57:29;;;;;;;15.00;9.38;;;11.10;99.90;;;;;;4991687;28;20052;-37
2023/06/05 04:59:56;;;;;;;11.80;7.70;;;11.20;99.90;;;;;;4991507;28;20509;-38
2023/06/05 05:02:23;;;;;;;12.63;9.20;;;11.20;99.90;;;;;;4982980;28;20062;-40
2023/06/05 05:04:51;;;;;;;12.30;8.00;;;11.30;99.90;;;;;;4985337;28;20090;-37
2023/06/05 05:07:19;;;;;;;11.07;7.97;;;11.30;99.90;;;;;;4992468;28;20066;-36
2023/06/05 05:09:46;;;;;;;7.28;6.40;;;11.30;99.90;;;;;;4986674;28;20129;-35
2023/06/05 05:12:13;;;;;;;18.98;9.25;;;11.40;99.90;;;;;;4986559;28;20043;-36
2023/06/05 05:14:40;;;;;;;11.32;7.38;;;11.40;99.90;;;;;;4990797;28;20522;-38
2023/06/05 05:17:07;;;;;;;11.65;9.00;;;11.50;99.90;;;;;;4984233;28;20057;-36
2023/06/05 05:19:34;;;;;;;12.93;7.72;;;11.50;99.90;;;;;;4989433;28;20137;-36
2023/06/05 05:22:01;;;;;;;12.00;7.53;;;11.60;99.90;;;;;;4987880;28;20042;-41
2023/06/05 05:24:29;;;;;;;12.63;7.90;;;11.70;99.90;;;;;;4986891;28;20109;-37
2023/06/05 05:26:56;;;;;;;12.18;7.88;;;11.70;99.90;;;;;;4989570;28;20517;-38
2023/06/05 05:29:23;;;;;;;14.80;8.30;;;11.90;99.90;;;;;;4986670;28;20463;-36
2023/06/05 05:31:50;;;;;;;13.10;9.02;;;11.90;99.90;;;;;;4990235;28;20478;-41
2023/06/05 05:34:17;;;;;;;12.63;8.63;;;12.00;99.90;;;;;;4990241;28;20425;-39
2023/06/05 05:36:44;;;;;;;12.18;8.75;;;12.10;99.90;;;;;;4988792;28;20046;-40
2023/06/05 05:39:11;;;;;;;12.38;7.75;;;12.10;99.90;;;;;;4988364;28;20446;-37
2023/06/05 05:41:40;;;;;;;11.40;8.45;;;12.20;99.90;;;;;;4987717;28;20053;-37
2023/06/05 05:44:06;;;;;;;12.00;7.43;;;12.40;99.90;;;;;;4988766;28;20054;-38
2023/06/05 05:46:33;;;;;;;12.10;9.30;;;12.50;99.90;;;;;;4990064;28;20483;-36
2023/06/05 05:49:00;;;;;;;12.70;8.95;;;12.70;99.90;;;;;;4982392;28;20089;-38
2023/06/05 05:51:27;;;;;;;10.48;8.20;;;12.70;99.90;;;;;;4975972;28;20112;-37
2023/06/05 05:53:54;;;;;;;11.20;7.85;;;12.80;99.90;;;;;;4986041;28;20117;-39
2023/06/05 05:56:21;;;;;;;12.25;8.60;;;12.90;99.90;;;;;;4988667;28;20113;-41
2023/06/05 05:58:49;;;;;;;10.48;8.05;;;13.00;99.90;;;;;;4989687;28;20093;-36
2023/06/05 06:01:16;;;;;;;10.38;8.60;;;13.10;99.90;;;;;;4980745;28;20480;-41
2023/06/05 06:03:43;;;;;;;10.52;7.90;;;13.20;99.90;;;;;;4979886;28;20100;-39
2023/06/05 06:06:10;;;;;;;10.23;7.95;;;13.20;99.90;;;;;;4987298;28;20062;-35
2023/06/05 06:08:37;;;;;;;8.82;7.78;;;13.30;99.90;;;;;;4986406;28;20457;-39
2023/06/05 06:11:06;;;;;;;9.75;6.93;;;13.40;99.90;;;;;;4975036;28;20230;-38
2023/06/05 06:13:33;;;;;;;10.52;6.85;;;13.50;99.90;;;;;;4970135;28;20046;-40
2023/06/05 06:16:01;;;;;;;9.48;7.60;;;13.50;99.90;;;;;;4972946;28;20054;-37
2023/06/05 06:18:28;;;;;;;11.27;8.20;;;13.70;99.90;;;;;;4989093;28;20478;-39
2023/06/05 06:20:55;;;;;;;10.27;7.95;;;13.80;99.90;;;;;;4990660;28;20483;-39
2023/06/05 06:23:22;;;;;;;10.02;7.43;;;14.00;99.90;;;;;;4990478;28;20567;-34
2023/06/05 06:25:50;;;;;;;12.38;7.63;;;14.10;99.90;;;;;;4990378;28;20092;-39
2023/06/05 06:28:17;;;;;;;11.40;7.45;;;14.30;99.90;;;;;;4990697;28;20064;-37
2023/06/05 06:30:44;;;;;;;8.75;6.88;;;14.40;99.90;;;;;;4990327;28;20113;-37
2023/06/05 06:33:12;;;;;;;9.20;7.18;;;14.50;99.90;;;;;;4989904;28;20121;-34
2023/06/05 06:35:39;;;;;;;9.25;7.05;;;14.60;99.90;;;;;;4989620;28;20561;-38
2023/06/05 06:38:06;;;;;;;8.50;6.60;;;14.70;99.90;;;;;;4971171;28;20126;-40
2023/06/05 06:40:32;;;;;;;10.20;6.20;;;14.70;99.90;;;;;;4970898;28;20043;-41
2023/06/05 06:42:59;;;;;;;9.20;6.40;;;14.80;99.90;;;;;;4971028;28;20102;-38
2023/06/05 06:45:26;;;;;;;8.38;6.55;;;15.00;99.90;;;;;;4970948;28;20051;-42
2023/06/05 06:47:53;;;;;;;8.27;5.68;;;15.00;99.90;;;;;;4970663;28;20042;-41
2023/06/05 06:50:21;;;;;;;12.38;6.45;;;15.20;99.90;;;;;;4969983;28;20121;-41
2023/06/05 06:52:48;;;;;;;11.30;6.00;;;15.40;99.90;;;;;;4969754;28;20105;-40
2023/06/05 06:55:15;;;;;;;6.68;5.07;;;15.50;99.90;;;;;;4971161;28;20403;-39
2023/06/05 06:57:42;;;;;;;8.98;5.82;;;15.50;99.90;;;;;;4974155;28;20055;-40
2023/06/05 07:00:10;;;;;;;7.72;5.18;;;15.70;99.90;;;;;;4974158;28;20047;-37
2023/06/05 07:02:37;;;;;;;8.52;5.47;;;15.80;99.90;;;;;;4973803;28;20467;-42
2023/06/05 07:05:06;;;;;;;6.30;5.20;;;15.90;99.90;;;;;;4974343;28;20055;-38
2023/06/05 07:07:34;;;;;;;6.38;4.40;;;16.00;99.90;;;;;;4974180;28;20530;-42
2023/06/05 07:10:01;;;;;;;6.40;3.80;;;16.20;99.90;;;;;;4973908;28;20406;-39
2023/06/05 07:12:27;;;;;;;5.15;4.63;;;16.40;99.90;;;;;;4976693;28;20625;-38
2023/06/05 07:14:55;;;;;;;6.43;3.80;;;16.60;99.90;;;;;;4992004;28;20133;-43
2023/06/05 07:17:22;;;;;;;6.05;4.18;;;16.80;99.90;;;;;;4993004;28;20064;-37
2023/06/05 07:19:51;;;;;;;7.07;3.95;;;16.90;99.90;;;;;;4993402;28;20387;-38
2023/06/05 07:22:18;;;;;;;5.70;3.60;;;17.10;99.90;;;;;;4993635;28;20054;-43
2023/06/05 07:24:48;;;;;;;6.80;3.55;;;17.30;99.90;;;;;;4991747;28;20101;-41
2023/06/05 07:27:15;;;;;;;6.78;3.90;;;17.50;99.90;;;;;;4991580;28;20254;-41
2023/06/05 07:29:42;;;;;;;7.47;4.13;;;17.70;99.90;;;;;;4992992;28;20113;-43
2023/06/05 07:32:09;;;;;;;5.65;3.70;;;17.80;99.90;;;;;;4992879;28;20072;-43
2023/06/05 07:34:36;;;;;;;4.75;3.67;;;17.90;99.90;;;;;;4993160;28;20054;-43
2023/06/05 07:37:03;;;;;;;4.40;3.42;;;18.10;99.90;;;;;;4981254;28;20546;-41
2023/06/05 07:39:29;;;;;;;7.05;3.55;;;18.30;99.50;;;;;;4973894;28;20409;-43
2023/06/05 07:41:58;;;;;;;4.65;3.60;;;18.40;99.30;;;;;;4973717;28;20090;-43
2023/06/05 07:44:24;;;;;;;4.72;3.25;;;18.60;99.10;;;;;;4985725;28;20047;-40
2023/06/05 07:46:51;;;;;;;3.70;3.30;;;18.70;98.80;;;;;;4972308;28;20050;-41
2023/06/05 07:49:18;;;;;;;4.95;3.85;;;18.80;98.20;;;;;;4973837;28;20050;-41
2023/06/05 07:51:47;;;;;;;9.25;3.83;;;18.70;97.90;;;;;;4973316;28;20059;-42
2023/06/05 07:54:15;;;;;;;4.50;3.22;;;18.90;97.90;;;;;;4973469;28;20047;-42
2023/06/05 07:56:42;;;;;;;5.80;3.50;;;19.00;97.80;;;;;;4973294;28;20078;-43
2023/06/05 07:59:10;;;;;;;6.22;3.17;;;19.20;97.50;;;;;;4971572;28;20140;-42
2023/06/05 08:01:37;;;;;;;4.47;3.50;;;19.40;97.20;;;;;;4973318;28;20053;-39
2023/06/05 08:04:04;;;;;;;4.72;3.00;;;19.50;96.60;;;;;;4972017;28;20518;-41
2023/06/05 08:06:31;;;;;;;5.07;3.10;;;19.60;96.10;;;;;;4972222;28;20057;-42
2023/06/05 08:08:59;;;;;;;6.20;2.95;;;19.60;95.40;;;;;;4972521;28;20121;-41
2023/06/05 08:11:26;;;;;;;4.72;3.22;;;19.60;95.40;;;;;;4971903;28;20141;-42
2023/06/05 08:13:53;;;;;;;4.55;3.42;;;19.70;95.10;;;;;;4985501;28;20109;-42
2023/06/05 08:16:21;;;;;;;5.88;3.35;;;19.70;94.90;;;;;;4990106;28;20066;-40
2023/06/05 08:18:48;;;;;;;5.72;3.25;;;19.70;94.40;;;;;;4983220;28;20446;-43
2023/06/05 08:21:15;;;;;;;5.55;3.13;;;19.70;94.60;;;;;;4984632;28;20129;-42
2023/06/05 08:23:43;;;;;;;8.02;3.13;;;19.70;94.40;;;;;;4980026;28;20109;-43
2023/06/05 08:26:11;;;;;;;4.25;3.00;;;19.80;94.40;;;;;;4992245;28;20054;-38
2023/06/05 08:28:39;;;;;;;4.85;3.00;;;20.00;94.20;;;;;;4992245;28;20413;-44
2023/06/05 08:31:06;;;;;;;4.25;3.10;;;20.10;94.10;;;;;;4991504;28;20066;-44
2023/06/05 08:33:34;;;;;;;4.38;2.78;;;20.40;93.60;;;;;;4992872;28;20402;-40
2023/06/05 08:36:02;;;;;;;5.05;2.90;;;20.50;93.70;;;;;;4992404;28;20446;-43
2023/06/05 08:38:29;;;;;;;4.32;2.70;;;20.60;93.10;;;;;;4991086;28;20054;-43
2023/06/05 08:40:58;;;;;;;3.65;2.83;;;20.70;93.10;;;;;;4992109;28;20058;-43
2023/06/05 08:43:25;;;;;;;5.28;2.60;;;20.90;92.60;;;;;;4992037;28;20449;-43
2023/06/05 08:45:52;;;;;;;7.65;2.80;;;20.90;92.70;;;;;;4991886;28;20502;-42
2023/06/05 08:48:19;;;;;;;5.13;2.90;;;21.10;92.50;;;;;;4992220;28;20102;-42
2023/06/05 08:50:48;;;;;;;3.45;2.53;;;21.30;91.70;;;;;;4992652;28;20074;-42
2023/06/05 08:53:16;;;;;;;3.35;2.50;;;21.40;91.70;;;;;;4991839;28;20070;-39
2023/06/05 08:55:43;;;;;;;4.03;2.47;;;21.70;91.60;;;;;;4991779;28;20054;-42
2023/06/05 08:58:10;;;;;;;3.22;2.60;;;21.80;91.10;;;;;;4989502;28;20402;-40
2023/06/05 09:00:37;;;;;;;4.55;2.63;;;21.90;90.90;;;;;;4972484;28;20126;-43
2023/06/05 09:03:04;;;;;;;2.78;2.50;;;22.10;90.30;;;;;;4972282;28;20054;-43
2023/06/05 09:05:30;;;;;;;4.53;2.97;;;22.20;90.10;;;;;;4971273;28;20549;-43
2023/06/05 09:07:59;;;;;;;3.35;2.72;;;22.20;90.10;;;;;;4972161;28;20569;-41
2023/06/05 09:10:26;;;;;;;8.18;3.38;;;22.30;89.40;;;;;;4971167;28;20101;-44
2023/06/05 09:12:53;;;;;;;4.63;2.55;;;22.30;87.90;;;;;;4972422;28;20059;-42
2023/06/05 09:15:24;;;;;;;3.20;2.70;;;22.40;88.20;;;;;;4972232;28;20105;-44
2023/06/05 09:18:03;;;;;;;6.28;2.75;;;22.50;87.70;;;;;;4972120;28;20055;-42
2023/06/05 09:20:31;;;;;;;2.97;2.30;;;22.60;86.90;;;;;;4971165;28;20057;-43
2023/06/05 09:22:59;;;;;;;4.50;2.25;;;22.80;86.30;;;;;;4970749;28;20054;-33
2023/06/05 09:25:28;;;;;;;4.10;2.30;;;22.70;85.50;;;;;;4971017;28;20054;-35
2023/06/05 09:28:06;;;;;;;3.42;2.00;;;22.80;84.60;;;;;;4972006;28;20102;-34
2023/06/05 09:30:33;;;;;;;6.00;2.40;;;22.90;85.70;;;;;;4970660;28;20056;-34
2023/06/05 09:33:09;;;;;;;4.93;2.45;;;22.90;84.40;;;;;;4971991;28;20086;-34
2023/06/05 09:35:38;;;;;;;5.72;2.50;;;22.90;83.90;;;;;;4971885;28;20487;-35
2023/06/05 09:38:08;;;;;;;5.43;2.53;;;23.00;83.90;;;;;;4972316;28;20054;-35
2023/06/05 09:40:38;;;;;;;3.40;2.20;;;23.20;83.50;;;;;;4971407;28;20042;-35
2023/06/05 09:43:13;;;;;;;3.33;2.10;;;23.30;82.80;;;;;;4971691;28;20506;-36
2023/06/05 09:45:43;;;;;;;4.43;2.20;;;23.40;82.50;;;;;;4970876;28;20101;-35
2023/06/05 09:48:14;;;;;;;4.40;2.30;;;23.60;82.00;;;;;;4970479;28;20109;-34
2023/06/05 09:50:42;;;;;;;11.82;2.83;;;23.70;80.70;;;;;;4971154;28;20141;-35
2023/06/05 09:53:11;;;;;;;3.38;1.80;;;23.80;80.50;;;;;;4971445;28;20093;-35
2023/06/05 09:55:37;;;;;;;3.10;2.40;;;24.00;79.90;;;;;;4970776;28;20460;-35
2023/06/05 09:58:10;;;;;;;4.53;2.72;;;24.10;79.20;;;;;;4971878;28;20082;-35
2023/06/05 10:00:38;;;;;;;10.68;2.60;;;24.20;78.40;;;;;;4971549;28;20431;-35
2023/06/05 10:03:07;;;;;;;3.97;2.33;;;24.20;78.20;;;;;;4983003;28;20069;-33
2023/06/05 10:05:33;;;;;;;4.63;2.20;;;24.30;78.40;;;;;;4971845;28;20055;-34
2023/06/05 10:08:00;;;;;;;4.43;2.38;;;24.50;78.70;;;;;;4969921;28;20491;-35
2023/06/05 10:10:28;;;;;;;3.78;2.97;;;24.70;77.80;;;;;;4971372;28;20479;-34
2023/06/05 10:12:56;;;;;;;5.10;2.38;;;24.70;76.80;;;;;;4977720;28;20050;-34
2023/06/05 10:15:23;;;;;;;5.10;2.67;;;24.70;76.00;;;;;;4990507;28;20146;-34
2023/06/05 10:17:50;;;;;;;3.60;2.60;;;24.70;76.40;;;;;;4990322;28;20069;-36
2023/06/05 10:20:16;;;;;;;3.90;2.50;;;24.70;75.20;;;;;;4990718;28;20051;-35
2023/06/05 10:22:43;;;;;;;4.40;2.72;;;24.60;75.60;;;;;;4990903;28;20050;-35
2023/06/05 10:25:12;;;;;;;4.07;2.60;;;24.60;75.10;;;;;;4990264;28;20101;-34
2023/06/05 10:27:49;;;;;;;4.65;2.85;;;24.60;75.20;;;;;;4990015;28;20129;-35
2023/06/05 10:31:01;;;;;;;3.30;2.40;;;24.70;75.40;;;;;;4971462;28;20090;-36
2023/06/05 10:33:37;;;;;;;5.30;2.90;;;25.00;76.20;;;;;;4914991;29;20091;-35
2023/06/05 10:36:09;;;;;;;4.78;3.00;;;25.20;73.40;;;;;;4970784;28;20055;-35
2023/06/05 10:38:36;;;;;;;4.97;2.65;;;25.00;72.80;;;;;;4974526;28;20047;-35
2023/06/05 10:41:03;;;;;;;4.80;3.20;;;24.90;72.40;;;;;;4974597;28;20130;-34
2023/06/05 10:43:32;;;;;;;5.38;2.97;;;24.80;72.30;;;;;;4973876;28;20559;-35
2023/06/05 10:46:00;;;;;;;6.03;2.92;;;24.80;71.90;;;;;;4977792;28;20144;-35
2023/06/05 10:49:00;;;;;;;8.90;3.55;;;24.90;71.90;;;;;;4982913;28;20378;-34
2023/06/05 10:51:37;;;;;;;4.67;2.70;;;24.80;70.60;;;;;;4988850;28;20105;-35
2023/06/05 10:54:04;;;;;;;2.85;2.28;;;24.70;73.10;;;;;;4974359;28;20101;-35
2023/06/05 10:56:56;;;;;;;11.45;3.15;;;24.80;72.80;;;;;;4986609;28;20054;-35
2023/06/05 10:59:24;;;;;;;5.47;3.20;;;25.00;71.90;;;;;;4991484;28;20225;-35
2023/06/05 11:02:25;;;;;;;5.63;3.60;;;25.00;71.80;;;;;;4975349;28;20058;-35
2023/06/05 11:05:11;;;;;;;5.15;3.20;;;25.10;70.00;;;;;;4919549;29;20052;-36
2023/06/05 11:07:39;;;;;;;4.78;3.70;;;25.00;71.80;;;;;;4919283;29;20146;-36
2023/06/05 11:10:18;;;;;;;6.13;3.30;;;24.90;70.20;;;;;;4959078;28;20054;-35
2023/06/05 11:12:56;;;;;;;3.78;2.88;;;24.80;69.90;;;;;;4974713;28;20074;-36
2023/06/05 11:15:43;;;;;;;6.40;3.50;;;25.00;71.50;;;;;;4974942;28;20082;-35
2023/06/05 11:18:36;;;;;;;4.38;3.05;;;25.20;71.80;;;;;;4975728;28;20138;-33
2023/06/05 11:21:03;;;;;;;6.68;3.17;;;25.50;70.50;;;;;;4974699;28;20491;-36
2023/06/05 11:23:30;;;;;;;5.82;3.60;;;25.50;69.30;;;;;;4975415;28;20050;-36
2023/06/05 11:25:58;;;;;;;8.00;3.25;;;25.60;68.40;;;;;;4975560;28;20054;-36
2023/06/05 11:28:41;;;;;;;4.78;3.60;;;25.60;68.30;;;;;;4974386;28;20065;-36
2023/06/05 11:31:09;;;;;;;6.65;3.50;;;25.70;69.70;;;;;;4975542;28;20109;-36
2023/06/05 11:33:36;;;;;;;4.07;2.92;;;25.80;68.10;;;;;;4975204;28;20055;-36
2023/06/05 11:36:05;;;;;;;6.22;3.10;;;25.90;69.10;;;;;;4975208;28;20070;-35
2023/06/05 11:38:32;;;;;;;4.97;3.45;;;26.10;67.60;;;;;;4993339;28;20423;-36
2023/06/05 11:40:59;;;;;;;3.88;3.03;;;26.20;68.20;;;;;;4993834;28;20073;-34
2023/06/05 11:43:26;;;;;;;5.35;3.42;;;26.40;68.10;;;;;;4992162;28;20081;-35
2023/06/05 11:45:53;;;;;;;5.63;3.65;;;26.50;68.00;;;;;;4993631;28;20109;-36
2023/06/05 11:48:21;;;;;;;4.75;3.20;;;26.70;68.00;;;;;;4994747;28;20109;-36
2023/06/05 11:50:55;;;;;;;3.83;3.08;;;26.80;67.50;;;;;;4993898;28;20070;-36
2023/06/05 11:53:22;;;;;;;4.57;3.42;;;26.90;67.40;;;;;;4992545;28;20058;-35
2023/06/05 11:56:06;;;;;;;9.02;3.28;;;27.00;66.80;;;;;;4994327;28;20150;-36
2023/06/05 11:58:34;;;;;;;5.93;3.88;;;27.00;67.10;;;;;;4994539;28;20058;-36
2023/06/05 12:01:09;;;;;;;5.88;3.80;;;27.10;66.30;;;;;;4993805;28;20136;-37
2023/06/05 12:03:38;;;;;;;7.00;3.03;;;27.20;66.10;;;;;;4993377;28;20524;-35
2023/06/05 12:06:05;;;;;;;7.90;3.60;;;27.30;65.90;;;;;;4993197;28;20069;-35
2023/06/05 12:08:33;;;;;;;5.50;3.47;;;27.40;65.60;;;;;;4994291;28;20062;-35
2023/06/05 12:11:00;;;;;;;7.72;3.13;;;27.40;64.20;;;;;;4984929;28;20078;-36
2023/06/05 12:13:48;;;;;;;5.97;4.10;;;27.50;63.50;;;;;;4985312;28;20084;-36
2023/06/05 12:16:14;;;;;;;5.20;2.70;;;27.40;63.90;;;;;;4992885;28;20129;-36
2023/06/05 12:18:43;;;;;;;4.85;3.00;;;27.40;64.90;;;;;;4988114;28;20047;-36
2023/06/05 12:21:20;;;;;;;6.40;3.70;;;27.50;64.90;;;;;;4974284;28;20047;-36
2023/06/05 12:23:47;;;;;;;3.78;2.30;;;27.70;64.80;;;;;;4987577;28;20065;-35
2023/06/05 12:26:15;;;;;;;4.60;3.70;;;27.90;65.30;;;;;;4992806;28;20085;-36
2023/06/05 12:28:42;;;;;;;6.53;2.80;;;28.00;63.60;;;;;;4994065;28;20061;-36
2023/06/05 12:31:09;;;;;;;5.85;3.72;;;27.90;63.70;;;;;;4992719;28;20109;-36
2023/06/05 12:33:48;;;;;;;4.85;3.45;;;28.00;62.50;;;;;;4989322;28;20054;-36
2023/06/05 12:36:16;;;;;;;5.78;3.80;;;28.10;63.50;;;;;;4983162;28;20058;-36
2023/06/05 12:38:43;;;;;;;6.57;3.65;;;28.00;62.40;;;;;;4993890;28;20058;-36
2023/06/05 12:41:10;;;;;;;5.72;3.13;;;28.00;61.90;;;;;;4992562;28;20506;-36
2023/06/05 12:43:36;;;;;;;5.55;3.40;;;28.00;63.00;;;;;;4993782;28;20058;-36
2023/06/05 12:46:03;;;;;;;7.60;3.38;;;28.00;63.00;;;;;;4993616;28;20570;-35
2023/06/05 12:48:31;;;;;;;7.78;3.58;;;28.00;62.60;;;;;;4992506;28;20101;-36
2023/06/05 12:51:00;;;;;;;7.10;3.60;;;27.70;61.40;;;;;;4991848;28;20050;-36